Time;durP1;ratioP1;P1;durP2;ratioP2;P2;SDS_P1;SDS_P2;PMS_P1;PMS_P2;Temp;Humidity;BMP_temperature;BMP_pressure;BME280_temperature;BME280_humidity;BME280_pressure;Samples;Min_cycle;Max_cycle;Signal;HPM_P1;HPM_P2
2022/01/02 00:00:19;;;;;;;15.13;8.98;;;;;;;5.31;78.10;101852.52;1728835;83;21151;-84
2022/01/02 00:02:52;;;;;;;23.30;9.20;;;;;;;5.29;78.13;101847.61;1728586;83;21097;-85
2022/01/02 00:05:21;;;;;;;16.23;7.65;;;;;;;5.27;78.15;101840.97;1727689;83;22662;-86
2022/01/02 00:08:03;;;;;;;13.20;6.87;;;;;;;5.26;78.21;101837.47;1678329;83;21069;-85
2022/01/02 00:10:49;;;;;;;16.62;6.92;;;;;;;5.25;78.26;101831.77;1728899;83;21061;-88
2022/01/02 00:13:36;;;;;;;12.23;6.28;;;;;;;5.25;78.30;101830.47;1728613;83;21264;-87
2022/01/02 00:16:04;;;;;;;15.43;6.53;;;;;;;5.25;78.31;101816.48;1727476;83;21073;-85
2022/01/02 00:18:27;;;;;;;16.15;7.08;;;;;;;5.22;78.32;101808.48;1728163;83;21893;-87
2022/01/02 00:20:56;;;;;;;11.68;5.95;;;;;;;5.18;78.29;101801.23;1728893;83;21516;-87
2022/01/02 00:23:29;;;;;;;10.58;5.47;;;;;;;5.17;78.45;101794.23;1728776;83;21298;-89
2022/01/02 00:25:55;;;;;;;8.65;5.00;;;;;;;5.15;78.48;101775.84;1727557;83;21073;-83
2022/01/02 00:28:22;;;;;;;11.18;5.72;;;;;;;5.07;78.62;101748.37;1728772;83;21096;-86
2022/01/02 00:30:49;;;;;;;9.63;6.47;;;;;;;5.18;78.69;101764.69;1728903;83;21930;-84
2022/01/02 00:33:15;;;;;;;12.78;6.22;;;;;;;5.19;78.69;101766.51;1728779;83;21590;-84
2022/01/02 00:35:42;;;;;;;11.05;4.92;;;;;;;5.21;78.73;101768.81;1728889;83;21109;-84
2022/01/02 00:38:21;;;;;;;7.40;4.40;;;;;;;5.22;78.76;101775.84;1728915;83;21196;-84
2022/01/02 00:40:53;;;;;;;11.05;4.87;;;;;;;5.21;78.72;101771.42;1728972;83;21112;-83
2022/01/02 00:43:43;;;;;;;12.45;5.72;;;;;;;5.21;78.76;101776.64;1728552;83;21799;-83
2022/01/02 00:46:10;;;;;;;12.03;5.15;;;;;;;5.19;78.86;101766.09;1698710;83;21053;-84
2022/01/02 00:48:39;;;;;;;8.08;4.15;;;;;;;5.20;78.89;101762.70;1729333;83;21615;-85
2022/01/02 00:51:11;;;;;;;12.98;5.40;;;;;;;5.17;78.86;101758.58;1728926;81;21194;-84
2022/01/02 00:53:38;;;;;;;10.72;5.55;;;;;;;5.17;78.94;101749.44;1728546;83;21033;-87
2022/01/02 00:56:05;;;;;;;10.55;5.20;;;;;;;5.16;78.95;101742.44;1701816;83;22204;-83
2022/01/02 00:58:41;;;;;;;10.40;5.25;;;;;;;5.15;78.95;101729.28;1728534;83;21113;-83
2022/01/02 01:01:08;;;;;;;12.10;5.75;;;;;;;5.13;78.95;101726.58;1727978;83;21559;-83
2022/01/02 01:03:35;;;;;;;11.33;4.53;;;;;;;5.13;79.08;101723.96;1678434;83;21156;-82
2022/01/02 01:06:04;;;;;;;9.50;4.72;;;;;;;5.14;79.11;101715.31;1728628;83;21045;-83
2022/01/02 01:08:44;;;;;;;12.07;5.45;;;;;;;5.15;79.10;101714.52;1728290;83;21862;-84
2022/01/02 01:11:17;;;;;;;11.48;4.83;;;;;;;5.16;79.17;101708.89;1700488;83;21136;-84
2022/01/02 01:13:46;;;;;;;;;;;;;;;5.18;79.17;101686.39;1729226;83;21085;-83
2022/01/02 01:16:15;;;;;;;11.08;4.97;;;;;;;5.19;79.21;101681.69;1757110;81;20498;-83
2022/01/02 01:18:41;;;;;;;10.45;4.85;;;;;;;5.21;79.22;101674.84;1728464;81;21501;-83
2022/01/02 01:21:07;;;;;;;10.90;5.00;;;;;;;5.22;79.19;101670.14;1726957;81;21981;-83
2022/01/02 01:23:34;;;;;;;10.63;5.45;;;;;;;5.23;79.22;101667.59;1757722;81;21086;-83
2022/01/02 01:26:06;;;;;;;11.57;5.78;;;;;;;5.24;79.29;101669.83;1728551;83;21068;-83
2022/01/02 01:28:29;;;;;;;8.75;5.28;;;;;;;5.24;79.25;101670.72;1726234;83;21556;-83
2022/01/02 01:30:57;;;;;;;11.33;6.67;;;;;;;5.23;79.26;101664.98;1757674;81;21092;-83
2022/01/02 01:33:24;;;;;;;12.58;7.28;;;;;;;5.25;79.34;101658.56;1728663;83;21833;-85
2022/01/02 01:35:50;;;;;;;12.43;6.47;;;;;;;5.24;79.35;101664.19;1727181;81;21045;-83
2022/01/02 01:38:17;;;;;;;12.28;5.78;;;;;;;5.22;79.35;101661.89;1757852;81;21105;-85
2022/01/02 01:40:57;;;;;;;14.05;6.05;;;;;;;5.23;79.44;101651.93;1728866;83;21258;-84
2022/01/02 01:43:52;;;;;;;12.00;6.30;;;;;;;5.26;79.55;101636.47;1727660;81;21063;-84
2022/01/02 01:46:08;;;;;;;14.55;6.20;;;;;;;5.26;79.50;101640.80;1726522;83;22476;-84
2022/01/02 01:48:35;;;;;;;10.98;6.65;;;;;;;5.24;79.57;101639.39;1727129;83;21501;-84
2022/01/02 01:51:01;;;;;;;14.05;6.78;;;;;;;5.28;79.69;101631.34;1749191;81;21062;-84
2022/01/02 01:53:28;;;;;;;16.17;7.05;;;;;;;5.29;79.70;101627.02;1719614;83;21205;-85
2022/01/02 01:55:56;;;;;;;15.32;6.75;;;;;;;5.28;79.80;101622.63;1745491;82;21035;-83
2022/01/02 01:58:23;;;;;;;14.05;8.05;;;;;;;5.32;79.83;101635.94;1719681;83;22360;-83
2022/01/02 02:00:50;;;;;;;15.48;8.43;;;;;;;5.33;79.87;101650.81;1720577;82;21027;-84
2022/01/02 02:03:16;;;;;;;16.15;8.28;;;;;;;5.34;79.94;101646.06;1719801;83;21595;-84
2022/01/02 02:05:43;;;;;;;16.27;7.08;;;;;;;5.34;79.97;101616.04;1738733;82;21035;-84
2022/01/02 02:08:10;;;;;;;14.15;7.80;;;;;;;5.34;80.03;101604.30;1720041;83;21584;-84
2022/01/02 02:10:46;;;;;;;15.13;7.30;;;;;;;5.34;80.12;101606.91;1738875;82;21763;-84
2022/01/02 02:13:06;;;;;;;17.60;7.92;;;;;;;5.32;80.19;101595.89;1718401;83;21026;-84
2022/01/02 02:15:32;;;;;;;19.05;7.08;;;;;;;5.31;80.28;101598.91;1738427;82;21448;-83
2022/01/02 02:17:59;;;;;;;12.50;7.95;;;;;;;5.35;80.43;101594.36;1719667;83;21097;-83
2022/01/02 02:20:33;;;;;;;20.15;7.67;;;;;;;5.36;80.53;101585.70;1738435;82;21019;-83
2022/01/02 02:23:00;;;;;;;15.55;7.22;;;;;;;5.40;80.61;101584.17;1718852;83;22764;-83
2022/01/02 02:25:29;;;;;;;16.77;8.33;;;;;;;5.41;80.69;101570.33;1745608;82;21071;-83
2022/01/02 02:28:12;;;;;;;18.30;8.70;;;;;;;5.43;80.72;101557.84;1719768;83;21640;-84
2022/01/02 02:30:42;;;;;;;16.30;9.43;;;;;;;5.42;80.77;101571.73;1717172;83;21118;-83
2022/01/02 02:33:09;;;;;;;18.20;10.48;;;;;;;5.44;80.82;101567.88;1746003;82;21075;-83
2022/01/02 02:35:37;;;;;;;19.70;9.98;;;;;;;5.41;80.83;101545.53;1719756;83;21376;-82
2022/01/02 02:38:06;;;;;;;14.65;8.60;;;;;;;5.42;80.99;101542.09;1719620;83;21053;-82
2022/01/02 02:40:32;;;;;;;19.55;10.40;;;;;;;5.43;81.09;101534.77;1719512;83;21121;-82
2022/01/02 02:43:07;;;;;;;23.50;10.25;;;;;;;5.43;81.12;101530.84;1738221;81;21071;-82
2022/01/02 02:50:50;;;;;;;22.00;10.18;;;;;;;5.45;81.37;101505.72;1719174;81;21025;-82
2022/01/02 02:53:17;;;;;;;16.97;9.98;;;;;;;5.48;81.45;101480.18;1757339;81;21537;-83
2022/01/02 02:55:47;;;;;;;22.55;11.08;;;;;;;5.48;81.47;101470.66;1772037;80;21609;-83
2022/01/02 03:00:56;;;;;;;20.80;11.03;;;;;;;5.48;81.60;101448.84;1740488;82;21643;-83
2022/01/02 03:03:23;;;;;;;18.32;10.40;;;;;;;5.50;81.72;101433.78;1719040;83;21043;-82
2022/01/02 03:05:49;;;;;;;20.65;11.85;;;;;;;5.53;81.80;101426.09;1740059;82;21073;-80
2022/01/02 03:08:16;;;;;;;19.82;11.53;;;;;;;5.55;81.83;101428.39;1739954;82;21427;-81
2022/01/02 03:10:43;;;;;;;20.70;11.08;;;;;;;5.54;81.78;101429.22;1719100;83;21587;-83
2022/01/02 03:13:09;;;;;;;18.20;11.00;;;;;;;5.54;81.87;101425.72;1740529;82;21747;-84
2022/01/02 03:15:36;;;;;;;18.57;10.90;;;;;;;5.55;81.97;101426.19;1740508;82;21039;-83
2022/01/02 03:18:04;;;;;;;22.58;11.63;;;;;;;5.56;82.04;101420.17;1719236;83;21039;-84
2022/01/02 03:20:30;;;;;;;18.07;11.57;;;;;;;5.51;82.10;101398.11;1740204;82;21128;-82
2022/01/02 03:22:57;;;;;;;16.30;10.63;;;;;;;5.63;82.19;101398.77;1740136;82;21136;-81
2022/01/02 03:25:28;;;;;;;19.10;10.80;;;;;;;5.64;82.23;101393.64;1719299;83;21809;-87
2022/01/02 03:27:55;;;;;;;14.90;10.30;;;;;;;5.65;82.24;101390.23;1740040;82;21614;-81
2022/01/02 03:30:22;;;;;;;16.80;10.63;;;;;;;5.67;82.25;101392.94;1740056;82;21038;-82
2022/01/02 03:32:48;;;;;;;17.10;10.20;;;;;;;5.69;82.38;101387.77;1718920;83;21083;-82
2022/01/02 03:35:15;;;;;;;14.63;10.08;;;;;;;5.72;82.43;101383.61;1749101;81;21044;-83
2022/01/02 03:37:42;;;;;;;17.77;10.55;;;;;;;5.75;82.44;101382.91;1775969;80;21726;-83
2022/01/02 03:40:09;;;;;;;17.40;11.08;;;;;;;5.74;82.48;101355.86;1757864;81;21038;-81
2022/01/02 03:42:36;;;;;;;18.90;11.50;;;;;;;5.78;82.59;101337.33;1757784;81;21021;-83
2022/01/02 03:45:04;;;;;;;18.92;11.53;;;;;;;5.80;82.65;101340.54;1757795;81;21017;-84
2022/01/02 03:47:31;;;;;;;17.98;10.82;;;;;;;5.81;82.73;101339.70;1772608;80;21144;-84
2022/01/02 03:49:57;;;;;;;17.77;11.53;;;;;;;5.83;82.73;101337.18;1771869;80;21744;-77
2022/01/02 03:52:25;;;;;;;17.17;11.57;;;;;;;5.85;82.79;101335.55;1760489;81;21655;-82
2022/01/02 03:54:52;;;;;;;19.05;11.75;;;;;;;5.85;82.81;101334.23;1817528;78;21247;-83
2022/01/02 03:57:19;;;;;;;14.55;10.78;;;;;;;5.86;82.93;101332.13;1778691;79;21560;-82
2022/01/02 03:59:46;;;;;;;15.35;11.05;;;;;;;5.87;83.07;101310.39;1817642;78;21034;-83
2022/01/02 04:02:12;;;;;;;19.15;11.43;;;;;;;5.93;83.18;101312.44;1778653;80;21776;-83
2022/01/02 04:04:39;;;;;;;18.55;12.75;;;;;;;5.96;83.17;101307.42;1817515;78;21174;-83
2022/01/02 04:07:07;;;;;;;17.50;10.63;;;;;;;5.99;83.23;101293.22;1778205;80;21084;-84
2022/01/02 04:09:34;;;;;;;15.95;10.45;;;;;;;6.02;83.25;101286.44;1817413;78;21027;-83
2022/01/02 04:12:01;;;;;;;16.50;11.00;;;;;;;6.06;83.29;101275.70;1778650;79;21064;-83
2022/01/02 04:14:27;;;;;;;15.25;9.88;;;;;;;6.09;83.29;101260.19;1817593;78;21800;-84
2022/01/02 04:16:54;;;;;;;14.73;10.13;;;;;;;6.14;83.32;101257.83;1778846;80;21031;-83
2022/01/02 04:19:21;;;;;;;17.87;11.10;;;;;;;6.16;83.33;101254.88;1817361;78;21035;-83
2022/01/02 04:21:47;;;;;;;17.73;10.58;;;;;;;6.19;83.40;101261.55;1778849;79;21106;-84
2022/01/02 04:24:14;;;;;;;14.10;10.68;;;;;;;6.24;83.49;101264.00;1817412;78;21062;-83
2022/01/02 04:26:41;;;;;;;16.55;10.05;;;;;;;6.25;83.45;101257.05;1778677;80;21756;-82
2022/01/02 04:29:07;;;;;;;15.08;10.75;;;;;;;6.27;83.52;101243.63;1817461;78;22163;-83
2022/01/02 04:31:34;;;;;;;14.70;10.08;;;;;;;6.30;83.63;101235.54;1778672;80;21031;-83
2022/01/02 04:34:01;;;;;;;16.80;11.22;;;;;;;6.33;83.69;101228.28;1817568;78;21074;-82
2022/01/02 04:36:27;;;;;;;15.28;11.40;;;;;;;6.38;83.74;101228.08;1778766;80;21584;-82
2022/01/02 04:38:54;;;;;;;14.18;10.53;;;;;;;6.41;83.76;101223.00;1817127;78;21807;-82
2022/01/02 04:41:21;;;;;;;17.98;11.78;;;;;;;6.46;83.76;101219.30;1778676;80;21066;-85
2022/01/02 04:43:48;;;;;;;16.25;10.72;;;;;;;6.48;83.78;101206.80;1817788;78;21568;-84
2022/01/02 04:46:14;;;;;;;12.95;10.13;;;;;;;6.51;83.81;101197.78;1778749;80;21614;-83
2022/01/02 04:48:41;;;;;;;16.67;10.70;;;;;;;6.55;83.82;101194.52;1817803;78;21046;-82
2022/01/02 04:51:11;;;;;;;13.90;10.90;;;;;;;6.57;83.76;101198.52;1783236;79;22414;-82
2022/01/02 04:53:46;;;;;;;16.67;11.25;;;;;;;6.60;83.85;101179.02;1790632;80;21078;-82
2022/01/02 04:56:06;;;;;;;13.13;9.95;;;;;;;6.64;83.85;101178.34;1727770;83;21061;-83
2022/01/02 04:58:33;;;;;;;16.90;10.68;;;;;;;6.68;83.88;101188.55;1758226;81;21174;-83
2022/01/02 05:00:59;;;;;;;13.38;10.32;;;;;;;6.69;83.87;101196.89;1728740;83;21069;-81
2022/01/02 05:03:26;;;;;;;12.53;9.63;;;;;;;6.73;83.87;101189.25;1757721;81;21840;-81
2022/01/02 05:05:53;;;;;;;14.10;10.32;;;;;;;6.75;83.87;101181.06;1728448;83;21523;-82
2022/01/02 05:08:19;;;;;;;12.53;9.50;;;;;;;6.79;83.99;101173.86;1727066;83;21019;-82
2022/01/02 05:10:46;;;;;;;11.95;9.40;;;;;;;6.83;84.04;101168.75;1757637;81;21050;-82
2022/01/02 05:13:13;;;;;;;13.00;9.63;;;;;;;6.89;84.05;101162.48;1728503;82;21060;-82
2022/01/02 05:15:39;;;;;;;12.53;9.10;;;;;;;6.91;84.04;101149.98;1726870;81;21747;-82
2022/01/02 05:18:06;;;;;;;12.80;8.83;;;;;;;6.93;84.12;101137.86;1757630;81;21000;-83
2022/01/02 05:20:33;;;;;;;12.25;9.35;;;;;;;6.98;84.14;101141.98;1728248;83;21065;-83
2022/01/02 05:22:59;;;;;;;10.65;8.70;;;;;;;7.01;84.07;101139.52;1726807;83;21058;-82
2022/01/02 05:25:26;;;;;;;13.43;9.55;;;;;;;7.04;84.11;101125.66;1757465;81;21042;-83
2022/01/02 05:27:53;;;;;;;14.85;9.83;;;;;;;7.05;84.13;101107.41;1728421;83;21729;-82
2022/01/02 05:30:20;;;;;;;15.00;10.25;;;;;;;7.07;84.12;101101.83;1726813;81;21516;-83
2022/01/02 05:32:46;;;;;;;14.28;9.65;;;;;;;7.10;84.24;101099.36;1758047;81;21113;-84
2022/01/02 05:35:13;;;;;;;13.98;10.48;;;;;;;7.13;84.21;101104.74;1728585;82;20990;-84
2022/01/02 05:37:40;;;;;;;15.32;11.38;;;;;;;7.15;84.20;101107.41;1727026;83;21025;-83
2022/01/02 05:40:08;;;;;;;14.43;10.60;;;;;;;7.14;84.26;101113.06;1731458;81;50953;-84
2022/01/02 05:42:34;;;;;;;15.80;10.93;;;;;;;7.15;84.33;101115.25;1728511;83;21105;-85
2022/01/02 05:45:01;;;;;;;14.53;11.20;;;;;;;7.18;84.52;101112.78;1756922;81;21019;-84
2022/01/02 05:47:28;;;;;;;15.58;11.90;;;;;;;7.23;84.65;101124.79;1727736;81;21073;-83
2022/01/02 05:49:54;;;;;;;17.65;11.68;;;;;;;7.28;84.72;101131.10;1757086;81;21579;-85
2022/01/02 05:52:21;;;;;;;15.85;11.10;;;;;;;7.32;84.78;101119.54;1741880;81;22514;-84
2022/01/02 05:54:48;;;;;;;16.70;12.05;;;;;;;7.36;84.79;101117.53;1817270;78;21562;-85
2022/01/02 05:57:14;;;;;;;16.87;12.53;;;;;;;7.39;84.74;101104.97;1778745;80;21000;-86
2022/01/02 05:59:41;;;;;;;16.05;12.35;;;;;;;7.41;84.73;101099.38;1817858;78;21015;-86
2022/01/02 06:02:07;;;;;;;18.57;13.03;;;;;;;7.43;84.78;101095.10;1817706;78;21482;-84
2022/01/02 06:04:34;;;;;;;16.37;12.15;;;;;;;7.45;84.83;101088.23;1778596;80;21724;-83
2022/01/02 06:07:01;;;;;;;17.05;12.75;;;;;;;7.48;84.83;101088.77;1817211;78;21100;-82
2022/01/02 06:09:28;;;;;;;21.35;13.03;;;;;;;7.50;84.88;101083.18;1816952;78;21030;-83
2022/01/02 06:11:54;;;;;;;20.12;14.00;;;;;;;7.53;84.93;101076.35;1778680;79;21127;-82
2022/01/02 06:14:21;;;;;;;16.95;13.55;;;;;;;7.56;84.94;101071.25;1817016;78;21042;-83
2022/01/02 06:16:48;;;;;;;19.48;13.55;;;;;;;7.58;84.86;101075.22;1778246;80;22557;-83
2022/01/02 06:19:14;;;;;;;19.67;13.50;;;;;;;7.61;84.86;101070.13;1817062;78;21026;-83
2022/01/02 06:21:41;;;;;;;20.55;14.13;;;;;;;7.64;84.91;101051.92;1778563;80;21012;-83
2022/01/02 06:24:07;;;;;;;18.27;13.18;;;;;;;7.68;84.94;101049.02;1817487;78;21113;-84
2022/01/02 06:26:34;;;;;;;21.65;14.38;;;;;;;7.71;84.93;101036.02;1778829;80;21070;-84
2022/01/02 06:29:03;;;;;;;24.37;15.75;;;;;;;7.73;84.95;101024.80;1817741;78;21737;-82
2022/01/02 06:31:30;;;;;;;20.85;15.18;;;;;;;7.76;84.95;101017.46;1817415;78;20991;-83
2022/01/02 06:33:57;;;;;;;23.50;15.03;;;;;;;7.78;84.95;101011.86;1817625;78;21050;-85
2022/01/02 06:36:24;;;;;;;22.27;15.95;;;;;;;7.80;84.93;100998.41;1778476;80;21149;-83
2022/01/02 06:38:50;;;;;;;25.25;16.07;;;;;;;7.81;84.96;100997.98;1817320;78;21563;-83
2022/01/02 06:41:20;;;;;;;21.95;16.85;;;;;;;7.83;85.01;100992.38;1778096;80;22669;-84
2022/01/02 06:43:52;;;;;;;23.70;16.42;;;;;;;7.85;85.02;100990.31;1816558;78;21086;-81
2022/01/02 06:46:15;;;;;;;22.75;16.32;;;;;;;7.88;85.00;100987.83;1815753;78;21671;-79
2022/01/02 06:48:41;;;;;;;23.02;16.65;;;;;;;7.91;85.05;100976.14;1777378;80;21019;-79
2022/01/02 06:51:08;;;;;;;35.23;23.27;;;;;;;7.93;85.04;100976.20;1814119;78;21584;-78
2022/01/02 06:53:35;;;;;;;25.40;18.90;;;;;;;7.90;85.05;100952.48;1794944;79;21779;-79
2022/01/02 06:56:02;;;;;;;27.42;19.20;;;;;;;7.95;85.12;100957.06;1794883;79;21093;-78
2022/01/02 06:58:28;;;;;;;21.85;17.42;;;;;;;7.95;85.08;100948.31;1795089;79;21062;-78
2022/01/02 07:00:56;;;;;;;24.77;17.87;;;;;;;7.98;85.19;100951.07;1795264;79;21098;-78
2022/01/02 07:03:24;;;;;;;26.07;18.87;;;;;;;8.03;85.25;100945.56;1795285;79;21525;-78
2022/01/02 07:05:51;;;;;;;25.10;19.07;;;;;;;8.04;85.29;100939.50;1795296;79;21756;-78
2022/01/02 07:08:18;;;;;;;25.77;19.87;;;;;;;8.06;85.28;100940.88;1794905;79;21047;-78
2022/01/02 07:10:44;;;;;;;27.40;18.77;;;;;;;8.07;85.35;100933.08;1795538;79;21105;-78
2022/01/02 07:13:11;;;;;;;31.23;19.37;;;;;;;8.09;85.36;100929.17;1795467;79;21113;-78
2022/01/02 07:15:38;;;;;;;26.35;20.52;;;;;;;8.10;85.39;100916.55;1795406;79;21035;-78
2022/01/02 07:18:04;;;;;;;31.25;19.75;;;;;;;8.11;85.42;100915.31;1795139;79;21730;-78
2022/01/02 07:20:31;;;;;;;26.97;20.23;;;;;;;8.13;85.49;100914.06;1794901;79;21039;-77
2022/01/02 07:22:58;;;;;;;28.45;19.75;;;;;;;8.14;85.51;100911.90;1795081;79;21043;-78
2022/01/02 07:25:24;;;;;;;28.50;20.30;;;;;;;8.14;85.52;100907.53;1794968;79;21532;-78
2022/01/02 07:27:51;;;;;;;56.95;41.48;;;;;;;8.13;85.55;100893.09;1795238;79;21612;-79
2022/01/02 07:30:18;;;;;;;31.70;22.22;;;;;;;8.16;85.63;100883.61;1794927;79;21757;-78
2022/01/02 07:32:45;;;;;;;29.07;19.73;;;;;;;8.18;85.65;100884.95;1795031;79;21039;-79
2022/01/02 07:35:11;;;;;;;27.55;20.40;;;;;;;8.17;85.62;100877.51;1776442;79;21146;-77
2022/01/02 07:37:38;;;;;;;28.40;20.05;;;;;;;8.18;85.70;100877.08;1795522;79;21061;-77
2022/01/02 07:40:05;;;;;;;37.35;28.35;;;;;;;8.21;85.80;100881.14;1797001;79;22287;-80
2022/01/02 07:42:32;;;;;;;30.70;22.90;;;;;;;8.22;85.80;100869.83;1796877;79;21803;-77
2022/01/02 07:44:59;;;;;;;30.60;21.00;;;;;;;8.26;85.87;100869.09;1796706;79;21131;-77
2022/01/02 07:47:26;;;;;;;28.70;20.32;;;;;;;8.33;85.98;100867.56;1797115;79;21053;-78
2022/01/02 07:49:52;;;;;;;28.40;19.02;;;;;;;8.37;85.95;100866.44;1797052;79;21170;-78
2022/01/02 07:52:19;;;;;;;25.30;19.37;;;;;;;8.43;85.94;100870.13;1793340;79;21121;-78
2022/01/02 07:54:46;;;;;;;27.30;19.52;;;;;;;8.46;85.98;100868.94;1789306;80;21957;-75
2022/01/02 07:57:12;;;;;;;26.15;18.92;;;;;;;8.50;86.00;100869.52;1789096;78;21555;-75
2022/01/02 07:59:41;;;;;;;29.90;19.62;;;;;;;8.55;86.04;100857.03;1789130;80;22306;-75
2022/01/02 08:02:13;;;;;;;29.20;22.17;;;;;;;8.60;86.07;100845.40;1789492;80;21724;-74
2022/01/02 08:04:41;;;;;;;31.00;20.60;;;;;;;8.66;86.05;100832.91;1789437;79;21089;-74
2022/01/02 08:07:07;;;;;;;26.75;19.62;;;;;;;8.70;85.99;100824.30;1788984;78;21730;-75
2022/01/02 08:09:34;;;;;;;32.78;20.45;;;;;;;8.74;86.00;100825.74;1788968;80;21038;-74
2022/01/02 08:12:01;;;;;;;30.65;20.75;;;;;;;8.79;85.93;100836.84;1789019;80;21121;-74
2022/01/02 08:14:27;;;;;;;28.12;18.87;;;;;;;8.81;85.86;100824.66;1788882;78;21152;-74
2022/01/02 08:16:54;;;;;;;25.97;18.87;;;;;;;8.85;85.88;100819.98;1789055;80;21089;-74
2022/01/02 08:19:21;;;;;;;29.87;18.82;;;;;;;8.87;85.83;100823.55;1788967;80;21710;-73
2022/01/02 08:21:48;;;;;;;27.27;17.82;;;;;;;8.91;85.88;100820.17;1788540;80;21573;-82
2022/01/02 08:24:15;;;;;;;28.10;17.07;;;;;;;8.96;85.88;100818.59;1790156;78;21530;-82
2022/01/02 08:26:42;;;;;;;22.67;16.05;;;;;;;9.04;85.92;100814.91;1789250;80;21034;-82
2022/01/02 08:29:08;;;;;;;23.60;17.57;;;;;;;9.09;85.85;100797.57;1789301;78;21539;-82
2022/01/02 08:31:35;;;;;;;26.73;15.72;;;;;;;9.15;85.86;100803.89;1789268;78;21724;-81
2022/01/02 08:34:02;;;;;;;25.25;16.20;;;;;;;9.21;85.79;100790.06;1789280;80;21050;-81
2022/01/02 08:36:28;;;;;;;21.48;15.13;;;;;;;9.26;85.68;100802.04;1788911;80;21053;-81
2022/01/02 08:38:55;;;;;;;19.90;14.93;;;;;;;9.30;85.64;100782.89;1789499;79;21586;-81
2022/01/02 08:41:22;;;;;;;23.15;16.23;;;;;;;9.33;85.64;100793.08;1789331;78;21050;-81
2022/01/02 08:43:48;;;;;;;26.02;15.63;;;;;;;9.39;85.57;100795.00;1789913;80;21745;-81
2022/01/02 08:46:15;;;;;;;20.35;14.90;;;;;;;9.42;85.45;100787.62;1789238;79;21054;-80
2022/01/02 08:48:42;;;;;;;21.12;14.98;;;;;;;9.44;85.43;100788.16;1789169;78;21557;-81
2022/01/02 08:51:11;;;;;;;19.60;14.50;;;;;;;9.47;85.32;100779.47;1789065;80;21065;-81
2022/01/02 08:53:38;;;;;;;19.60;14.15;;;;;;;9.48;85.34;100776.89;1792927;78;21038;-81
2022/01/02 08:56:04;;;;;;;26.70;17.55;;;;;;;9.51;85.30;100770.82;1794322;79;21830;-81
2022/01/02 08:58:32;;;;;;;23.45;15.30;;;;;;;9.54;85.27;100761.30;1793757;78;21066;-82
2022/01/02 09:01:00;;;;;;;21.90;14.90;;;;;;;9.58;85.26;100766.66;1794080;78;21014;-81
2022/01/02 09:03:26;;;;;;;20.75;14.18;;;;;;;9.60;85.22;100769.78;1793925;79;21069;-82
2022/01/02 09:05:53;;;;;;;30.68;14.28;;;;;;;9.62;85.21;100770.71;1794167;78;21108;-81
2022/01/02 09:08:20;;;;;;;18.90;13.35;;;;;;;9.64;85.20;100759.82;1793922;78;22429;-82
2022/01/02 09:10:47;;;;;;;20.92;13.90;;;;;;;9.70;85.20;100759.11;1793390;79;21674;-78
2022/01/02 09:13:17;;;;;;;18.98;12.70;;;;;;;9.73;85.16;100743.43;1794319;79;21121;-78
2022/01/02 09:15:46;;;;;;;20.25;13.68;;;;;;;9.75;85.06;100740.86;1794211;78;21066;-87
2022/01/02 09:18:16;;;;;;;21.82;13.58;;;;;;;9.77;85.08;100749.23;1761292;79;21034;-85
2022/01/02 09:20:43;;;;;;;20.15;13.05;;;;;;;9.80;85.02;100747.11;1783319;80;22351;-74
2022/01/02 09:23:10;;;;;;;20.02;13.35;;;;;;;9.79;84.97;100733.08;1789136;80;21286;-76
2022/01/02 09:25:37;;;;;;;19.40;12.70;;;;;;;9.82;84.96;100727.04;1789029;80;21065;-79
2022/01/02 09:28:04;;;;;;;17.62;12.75;;;;;;;9.82;84.92;100701.63;1789080;80;21084;-76
2022/01/02 09:30:31;;;;;;;16.50;12.58;;;;;;;9.82;84.86;100708.20;1789054;80;21058;-75
2022/01/02 09:32:58;;;;;;;15.98;12.35;;;;;;;9.81;84.83;100695.02;1789076;80;21719;-76
2022/01/02 09:35:25;;;;;;;18.12;11.90;;;;;;;9.82;84.88;100685.86;1788964;80;21063;-76
2022/01/02 09:37:51;;;;;;;22.48;14.33;;;;;;;9.83;84.88;100678.42;1789454;80;21515;-76
2022/01/02 09:40:18;;;;;;;19.70;13.62;;;;;;;9.83;84.90;100666.59;1789101;80;21078;-76
2022/01/02 09:42:45;;;;;;;18.12;12.70;;;;;;;9.80;84.77;100670.47;1789143;80;21706;-75
2022/01/02 09:45:13;;;;;;;25.32;17.35;;;;;;;9.77;84.78;100660.30;1789000;80;21816;-79
2022/01/02 09:47:40;;;;;;;27.62;18.60;;;;;;;9.75;84.82;100645.80;1788667;80;21039;-75
2022/01/02 09:50:08;;;;;;;27.15;18.37;;;;;;;9.73;84.83;100652.31;1788687;80;21600;-76
2022/01/02 09:52:35;;;;;;;38.67;26.17;;;;;;;9.74;84.97;100644.00;1783574;80;21429;-83
2022/01/02 09:55:01;;;;;;;26.30;21.48;;;;;;;9.77;85.05;100648.03;1768363;80;21103;-77
2022/01/02 09:57:28;;;;;;;23.42;17.35;;;;;;;9.80;85.00;100641.55;1762574;81;21805;-77
2022/01/02 09:59:56;;;;;;;21.48;17.23;;;;;;;9.81;85.00;100626.66;1762751;80;21117;-74
2022/01/02 10:02:23;;;;;;;28.15;17.42;;;;;;;9.83;84.98;100634.16;1731421;82;21073;-85
2022/01/02 10:04:50;;;;;;;18.27;13.68;;;;;;;9.81;84.86;100628.86;1763095;80;21153;-74
2022/01/02 10:07:33;;;;;;;20.17;15.75;;;;;;;9.81;84.92;100617.03;1709935;81;21058;-73
2022/01/02 10:09:56;;;;;;;18.42;13.93;;;;;;;9.79;84.85;100618.73;1758699;80;21679;-74
2022/01/02 10:12:28;;;;;;;18.95;12.03;;;;;;;9.78;84.85;100601.20;1760753;81;21109;-73
2022/01/02 10:15:17;;;;;;;18.98;12.43;;;;;;;9.79;84.91;100600.77;1732121;82;21556;-74
2022/01/02 10:18:06;;;;;;;18.60;11.97;;;;;;;9.80;85.01;100594.23;1762055;81;21105;-81
2022/01/02 10:20:37;;;;;;;33.63;25.72;;;;;;;9.85;85.01;100587.77;1763591;80;21330;-81
2022/01/02 10:23:22;;;;;;;18.23;12.78;;;;;;;9.85;84.93;100578.56;1763836;81;21974;-81
2022/01/02 10:26:00;;;;;;;19.42;12.05;;;;;;;9.90;85.03;100574.32;1763654;80;21337;-81
2022/01/02 10:28:42;;;;;;;21.82;13.48;;;;;;;9.95;85.05;100563.50;1763243;80;21050;-82
2022/01/02 10:31:15;;;;;;;14.07;11.03;;;;;;;9.98;84.94;100546.90;1762000;81;21130;-81
2022/01/02 10:34:01;;;;;;;15.98;11.88;;;;;;;10.04;84.91;100551.89;1732758;82;21101;-81
2022/01/02 10:36:33;;;;;;;17.00;11.65;;;;;;;10.09;84.91;100554.62;1762696;81;21783;-84
2022/01/02 10:39:13;;;;;;;14.18;10.53;;;;;;;10.15;84.84;100550.81;1763547;81;21069;-84
2022/01/02 10:41:45;;;;;;;17.70;15.10;;;;;;;10.19;84.72;100543.48;1761743;79;21093;-84
2022/01/02 10:44:29;;;;;;;29.67;21.37;;;;;;;10.22;84.65;100536.07;1763224;81;21221;-84
2022/01/02 10:47:22;;;;;;;15.98;11.95;;;;;;;10.22;84.50;100525.55;1763504;80;21062;-82
2022/01/02 10:50:04;;;;;;;16.87;10.68;;;;;;;10.20;84.38;100521.56;1763191;81;21754;-82
2022/01/02 10:52:35;;;;;;;13.10;10.43;;;;;;;10.19;84.37;100522.84;1731931;81;21672;-82
2022/01/02 10:55:16;;;;;;;16.95;12.15;;;;;;;10.14;84.20;100519.23;1789096;80;21117;-83
2022/01/02 10:57:42;;;;;;;22.45;14.03;;;;;;;10.08;84.24;100507.72;1731711;82;21492;-82
2022/01/02 11:00:10;;;;;;;20.20;15.70;;;;;;;10.03;84.19;100504.08;1761964;81;21062;-82
2022/01/02 11:02:39;;;;;;;17.32;11.88;;;;;;;9.99;84.24;100495.66;1789073;80;21783;-82
2022/01/02 11:05:10;;;;;;;24.12;18.40;;;;;;;9.96;84.29;100489.01;1761040;80;22150;-82
2022/01/02 11:07:44;;;;;;;24.90;19.70;;;;;;;9.91;84.33;100494.17;1789388;80;21619;-82
2022/01/02 11:10:12;;;;;;;40.58;30.70;;;;;;;9.90;84.39;100482.30;1788591;80;21210;-82
2022/01/02 11:12:39;;;;;;;34.25;25.45;;;;;;;9.90;84.47;100480.55;1789512;80;21007;-82
2022/01/02 11:15:07;;;;;;;31.60;25.40;;;;;;;9.90;84.46;100483.62;1789556;80;22568;-83
2022/01/02 11:17:37;;;;;;;57.10;41.30;;;;;;;9.90;84.53;100472.66;1789550;80;21058;-82
2022/01/02 11:20:06;;;;;;;41.25;28.35;;;;;;;9.88;84.44;100463.86;1789372;80;21062;-82
2022/01/02 11:22:54;;;;;;;34.63;29.82;;;;;;;9.88;84.52;100458.59;1789104;80;21552;-82
2022/01/02 11:25:46;;;;;;;26.05;19.90;;;;;;;9.90;84.56;100445.50;1789411;80;21069;-82
2022/01/02 11:28:39;;;;;;;21.57;17.42;;;;;;;9.92;84.61;100427.58;1789243;80;22574;-83
2022/01/02 11:31:09;;;;;;;19.00;14.85;;;;;;;9.94;84.59;100430.25;1789482;80;21325;-83
2022/01/02 11:33:39;;;;;;;20.55;14.00;;;;;;;9.95;84.54;100431.13;1789372;80;21066;-82